sensor_id;sensor_type;location;lat;lon;timestamp;P1;durP1;ratioP1;P2;durP2;ratioP2
75005;SDS011;63553;51.814;4.600;2024-01-27T00:00:03;1.90;;;1.50;;
75005;SDS011;63553;51.814;4.600;2024-01-27T00:02:29;3.97;;;2.03;;
75005;SDS011;63553;51.814;4.600;2024-01-27T00:04:54;2.57;;;1.50;;
75005;SDS011;63553;51.814;4.600;2024-01-27T00:07:20;2.70;;;1.40;;
75005;SDS011;63553;51.814;4.600;2024-01-27T00:09:45;1.40;;;1.10;;
75005;SDS011;63553;51.814;4.600;2024-01-27T00:12:10;1.97;;;1.20;;
75005;SDS011;63553;51.814;4.600;2024-01-27T00:14:37;1.55;;;1.38;;
75005;SDS011;63553;51.814;4.600;2024-01-27T00:17:04;2.28;;;1.10;;
75005;SDS011;63553;51.814;4.600;2024-01-27T00:19:29;3.50;;;2.03;;
75005;SDS011;63553;51.814;4.600;2024-01-27T00:21:54;2.57;;;1.37;;
75005;SDS011;63553;51.814;4.600;2024-01-27T00:24:20;1.53;;;1.30;;
75005;SDS011;63553;51.814;4.600;2024-01-27T00:26:45;1.50;;;1.40;;
75005;SDS011;63553;51.814;4.600;2024-01-27T00:29:10;2.05;;;1.30;;
75005;SDS011;63553;51.814;4.600;2024-01-27T00:31:36;2.72;;;1.23;;
75005;SDS011;63553;51.814;4.600;2024-01-27T00:34:01;3.03;;;1.40;;
75005;SDS011;63553;51.814;4.600;2024-01-27T00:36:27;4.70;;;1.30;;
75005;SDS011;63553;51.814;4.600;2024-01-27T00:38:52;2.13;;;1.25;;
75005;SDS011;63553;51.814;4.600;2024-01-27T00:41:18;1.37;;;1.23;;
75005;SDS011;63553;51.814;4.600;2024-01-27T00:43:43;4.35;;;1.48;;
75005;SDS011;63553;51.814;4.600;2024-01-27T00:46:09;2.80;;;1.38;;
75005;SDS011;63553;51.814;4.600;2024-01-27T00:48:34;1.30;;;1.20;;
75005;SDS011;63553;51.814;4.600;2024-01-27T00:50:59;2.78;;;1.40;;
75005;SDS011;63553;51.814;4.600;2024-01-27T00:53:25;1.73;;;1.10;;
75005;SDS011;63553;51.814;4.600;2024-01-27T00:55:50;1.27;;;1.00;;
75005;SDS011;63553;51.814;4.600;2024-01-27T00:58:16;2.40;;;1.50;;
75005;SDS011;63553;51.814;4.600;2024-01-27T01:00:41;1.98;;;1.10;;
75005;SDS011;63553;51.814;4.600;2024-01-27T01:03:06;2.43;;;1.30;;
75005;SDS011;63553;51.814;4.600;2024-01-27T01:05:32;2.70;;;1.47;;
75005;SDS011;63553;51.814;4.600;2024-01-27T01:07:57;2.00;;;1.10;;
75005;SDS011;63553;51.814;4.600;2024-01-27T01:10:22;3.40;;;1.20;;
75005;SDS011;63553;51.814;4.600;2024-01-27T01:12:48;2.13;;;1.30;;
75005;SDS011;63553;51.814;4.600;2024-01-27T01:15:13;2.73;;;1.30;;
75005;SDS011;63553;51.814;4.600;2024-01-27T01:17:38;1.60;;;1.17;;
75005;SDS011;63553;51.814;4.600;2024-01-27T01:20:04;2.53;;;2.10;;
75005;SDS011;63553;51.814;4.600;2024-01-27T01:22:30;3.30;;;1.20;;
75005;SDS011;63553;51.814;4.600;2024-01-27T01:24:56;3.08;;;1.20;;
75005;SDS011;63553;51.814;4.600;2024-01-27T01:27:21;3.45;;;1.30;;
75005;SDS011;63553;51.814;4.600;2024-01-27T01:29:47;1.55;;;1.10;;
75005;SDS011;63553;51.814;4.600;2024-01-27T01:32:12;3.45;;;1.30;;
75005;SDS011;63553;51.814;4.600;2024-01-27T01:34:37;1.38;;;1.08;;
75005;SDS011;63553;51.814;4.600;2024-01-27T01:37:03;2.53;;;1.10;;
75005;SDS011;63553;51.814;4.600;2024-01-27T01:39:28;1.58;;;1.25;;
75005;SDS011;63553;51.814;4.600;2024-01-27T01:41:54;1.05;;;0.95;;
75005;SDS011;63553;51.814;4.600;2024-01-27T01:44:19;4.05;;;1.00;;
75005;SDS011;63553;51.814;4.600;2024-01-27T01:46:45;2.85;;;1.25;;
75005;SDS011;63553;51.814;4.600;2024-01-27T01:49:10;1.15;;;0.93;;
75005;SDS011;63553;51.814;4.600;2024-01-27T01:51:36;3.20;;;1.40;;
75005;SDS011;63553;51.814;4.600;2024-01-27T01:54:01;2.23;;;1.23;;
75005;SDS011;63553;51.814;4.600;2024-01-27T01:56:27;1.55;;;1.45;;
75005;SDS011;63553;51.814;4.600;2024-01-27T01:58:54;1.17;;;1.13;;
75005;SDS011;63553;51.814;4.600;2024-01-27T02:01:19;2.08;;;1.33;;
75005;SDS011;63553;51.814;4.600;2024-01-27T02:03:55;4.57;;;1.63;;
75005;SDS011;63553;51.814;4.600;2024-01-27T02:06:21;3.53;;;1.20;;
75005;SDS011;63553;51.814;4.600;2024-01-27T02:08:46;2.70;;;1.20;;
75005;SDS011;63553;51.814;4.600;2024-01-27T02:11:12;1.17;;;1.08;;
75005;SDS011;63553;51.814;4.600;2024-01-27T02:13:37;2.05;;;1.00;;
75005;SDS011;63553;51.814;4.600;2024-01-27T02:16:03;2.17;;;1.35;;
75005;SDS011;63553;51.814;4.600;2024-01-27T02:18:28;4.32;;;1.73;;
75005;SDS011;63553;51.814;4.600;2024-01-27T02:20:54;2.30;;;1.23;;
75005;SDS011;63553;51.814;4.600;2024-01-27T02:23:19;3.22;;;1.45;;
75005;SDS011;63553;51.814;4.600;2024-01-27T02:25:45;2.50;;;1.60;;
75005;SDS011;63553;51.814;4.600;2024-01-27T02:28:10;1.37;;;1.10;;
75005;SDS011;63553;51.814;4.600;2024-01-27T02:30:37;2.15;;;1.42;;
75005;SDS011;63553;51.814;4.600;2024-01-27T02:33:03;3.17;;;1.27;;
75005;SDS011;63553;51.814;4.600;2024-01-27T02:35:29;0.98;;;0.98;;
75005;SDS011;63553;51.814;4.600;2024-01-27T02:37:54;3.50;;;1.40;;
75005;SDS011;63553;51.814;4.600;2024-01-27T02:40:20;1.60;;;1.02;;
75005;SDS011;63553;51.814;4.600;2024-01-27T02:42:45;1.17;;;1.03;;
75005;SDS011;63553;51.814;4.600;2024-01-27T02:45:10;2.45;;;1.23;;
75005;SDS011;63553;51.814;4.600;2024-01-27T02:47:39;1.95;;;0.90;;
75005;SDS011;63553;51.814;4.600;2024-01-27T02:50:05;1.20;;;1.08;;
75005;SDS011;63553;51.814;4.600;2024-01-27T02:52:33;1.73;;;1.00;;
75005;SDS011;63553;51.814;4.600;2024-01-27T02:54:59;0.90;;;0.90;;
75005;SDS011;63553;51.814;4.600;2024-01-27T02:57:24;2.33;;;1.35;;
75005;SDS011;63553;51.814;4.600;2024-01-27T02:59:50;2.70;;;1.35;;
75005;SDS011;63553;51.814;4.600;2024-01-27T03:02:15;0.98;;;0.90;;
75005;SDS011;63553;51.814;4.600;2024-01-27T03:04:41;3.00;;;1.45;;
75005;SDS011;63553;51.814;4.600;2024-01-27T03:07:06;1.67;;;1.13;;
75005;SDS011;63553;51.814;4.600;2024-01-27T03:09:32;1.70;;;1.13;;
75005;SDS011;63553;51.814;4.600;2024-01-27T03:11:57;2.20;;;1.40;;
75005;SDS011;63553;51.814;4.600;2024-01-27T03:14:23;1.48;;;1.38;;
75005;SDS011;63553;51.814;4.600;2024-01-27T03:16:49;2.72;;;1.20;;
75005;SDS011;63553;51.814;4.600;2024-01-27T03:19:14;1.88;;;1.20;;
75005;SDS011;63553;51.814;4.600;2024-01-27T03:21:39;1.40;;;1.30;;
75005;SDS011;63553;51.814;4.600;2024-01-27T03:24:05;2.27;;;1.30;;
75005;SDS011;63553;51.814;4.600;2024-01-27T03:26:30;2.20;;;1.55;;
75005;SDS011;63553;51.814;4.600;2024-01-27T03:28:55;1.25;;;1.20;;
75005;SDS011;63553;51.814;4.600;2024-01-27T03:31:21;1.67;;;1.20;;
75005;SDS011;63553;51.814;4.600;2024-01-27T03:33:46;3.10;;;1.10;;
75005;SDS011;63553;51.814;4.600;2024-01-27T03:36:12;2.63;;;1.20;;
75005;SDS011;63553;51.814;4.600;2024-01-27T03:38:38;2.17;;;1.35;;
75005;SDS011;63553;51.814;4.600;2024-01-27T03:41:05;2.33;;;1.60;;
75005;SDS011;63553;51.814;4.600;2024-01-27T03:43:30;1.90;;;1.27;;
75005;SDS011;63553;51.814;4.600;2024-01-27T03:45:59;3.65;;;1.40;;
75005;SDS011;63553;51.814;4.600;2024-01-27T03:48:25;2.55;;;1.42;;
75005;SDS011;63553;51.814;4.600;2024-01-27T03:50:50;1.48;;;1.23;;
75005;SDS011;63553;51.814;4.600;2024-01-27T03:53:15;1.67;;;1.00;;
75005;SDS011;63553;51.814;4.600;2024-01-27T03:55:41;1.20;;;1.10;;
75005;SDS011;63553;51.814;4.600;2024-01-27T03:58:06;2.50;;;1.50;;
75005;SDS011;63553;51.814;4.600;2024-01-27T04:00:32;2.45;;;1.30;;
75005;SDS011;63553;51.814;4.600;2024-01-27T04:03:01;1.98;;;1.20;;
75005;SDS011;63553;51.814;4.600;2024-01-27T04:05:28;2.97;;;1.30;;
75005;SDS011;63553;51.814;4.600;2024-01-27T04:07:54;3.15;;;1.67;;
75005;SDS011;63553;51.814;4.600;2024-01-27T04:10:20;1.88;;;1.10;;
75005;SDS011;63553;51.814;4.600;2024-01-27T04:12:45;1.77;;;1.20;;
75005;SDS011;63553;51.814;4.600;2024-01-27T04:15:10;2.50;;;1.13;;
75005;SDS011;63553;51.814;4.600;2024-01-27T04:17:39;3.08;;;1.42;;
75005;SDS011;63553;51.814;4.600;2024-01-27T04:20:06;2.42;;;1.35;;
75005;SDS011;63553;51.814;4.600;2024-01-27T04:22:32;1.77;;;1.42;;
75005;SDS011;63553;51.814;4.600;2024-01-27T04:24:58;2.05;;;1.73;;
75005;SDS011;63553;51.814;4.600;2024-01-27T04:27:23;1.20;;;1.10;;
75005;SDS011;63553;51.814;4.600;2024-01-27T04:29:49;1.55;;;1.20;;
75005;SDS011;63553;51.814;4.600;2024-01-27T04:32:14;1.50;;;1.40;;
75005;SDS011;63553;51.814;4.600;2024-01-27T04:34:39;1.20;;;1.10;;
75005;SDS011;63553;51.814;4.600;2024-01-27T04:37:05;2.20;;;1.40;;
75005;SDS011;63553;51.814;4.600;2024-01-27T04:39:30;2.08;;;1.40;;
75005;SDS011;63553;51.814;4.600;2024-01-27T04:41:56;2.00;;;1.40;;
75005;SDS011;63553;51.814;4.600;2024-01-27T04:44:22;3.47;;;1.48;;
75005;SDS011;63553;51.814;4.600;2024-01-27T04:46:47;1.92;;;1.25;;
75005;SDS011;63553;51.814;4.600;2024-01-27T04:49:14;1.98;;;1.40;;
75005;SDS011;63553;51.814;4.600;2024-01-27T04:51:39;3.05;;;1.33;;
75005;SDS011;63553;51.814;4.600;2024-01-27T04:54:05;2.97;;;1.60;;
75005;SDS011;63553;51.814;4.600;2024-01-27T04:56:30;1.40;;;1.30;;
75005;SDS011;63553;51.814;4.600;2024-01-27T04:58:55;3.35;;;1.42;;
75005;SDS011;63553;51.814;4.600;2024-01-27T05:01:21;1.53;;;1.43;;
75005;SDS011;63553;51.814;4.600;2024-01-27T05:03:46;2.38;;;1.40;;
75005;SDS011;63553;51.814;4.600;2024-01-27T05:06:12;2.50;;;1.43;;
75005;SDS011;63553;51.814;4.600;2024-01-27T05:08:37;2.47;;;1.50;;
75005;SDS011;63553;51.814;4.600;2024-01-27T05:11:02;1.70;;;1.20;;
75005;SDS011;63553;51.814;4.600;2024-01-27T05:13:28;1.33;;;1.23;;
75005;SDS011;63553;51.814;4.600;2024-01-27T05:15:53;1.40;;;1.30;;
75005;SDS011;63553;51.814;4.600;2024-01-27T05:18:18;1.50;;;1.40;;
75005;SDS011;63553;51.814;4.600;2024-01-27T05:20:44;1.90;;;1.43;;
75005;SDS011;63553;51.814;4.600;2024-01-27T05:23:09;1.50;;;1.40;;
75005;SDS011;63553;51.814;4.600;2024-01-27T05:25:34;2.23;;;1.47;;
75005;SDS011;63553;51.814;4.600;2024-01-27T05:28:00;2.03;;;1.63;;
75005;SDS011;63553;51.814;4.600;2024-01-27T05:30:25;1.40;;;1.30;;
75005;SDS011;63553;51.814;4.600;2024-01-27T05:32:50;1.60;;;1.10;;
75005;SDS011;63553;51.814;4.600;2024-01-27T05:35:16;1.37;;;1.27;;
75005;SDS011;63553;51.814;4.600;2024-01-27T05:37:41;1.77;;;1.20;;
75005;SDS011;63553;51.814;4.600;2024-01-27T05:40:07;1.97;;;1.40;;
75005;SDS011;63553;51.814;4.600;2024-01-27T05:42:33;1.52;;;1.40;;
75005;SDS011;63553;51.814;4.600;2024-01-27T05:44:58;1.90;;;1.52;;
75005;SDS011;63553;51.814;4.600;2024-01-27T05:47:24;2.15;;;1.48;;
75005;SDS011;63553;51.814;4.600;2024-01-27T05:49:49;1.97;;;1.50;;
75005;SDS011;63553;51.814;4.600;2024-01-27T05:52:14;2.20;;;1.27;;
75005;SDS011;63553;51.814;4.600;2024-01-27T05:54:40;1.77;;;1.30;;
75005;SDS011;63553;51.814;4.600;2024-01-27T05:57:08;1.65;;;1.40;;
75005;SDS011;63553;51.814;4.600;2024-01-27T05:59:34;2.43;;;1.30;;
75005;SDS011;63553;51.814;4.600;2024-01-27T06:01:59;2.13;;;1.37;;
75005;SDS011;63553;51.814;4.600;2024-01-27T06:04:24;2.50;;;1.80;;
75005;SDS011;63553;51.814;4.600;2024-01-27T06:06:50;2.53;;;1.40;;
75005;SDS011;63553;51.814;4.600;2024-01-27T06:09:15;2.37;;;1.40;;
75005;SDS011;63553;51.814;4.600;2024-01-27T06:11:40;2.53;;;1.50;;
75005;SDS011;63553;51.814;4.600;2024-01-27T06:14:06;1.70;;;1.30;;
75005;SDS011;63553;51.814;4.600;2024-01-27T06:16:31;2.30;;;1.40;;
75005;SDS011;63553;51.814;4.600;2024-01-27T06:18:57;2.22;;;1.67;;
75005;SDS011;63553;51.814;4.600;2024-01-27T06:21:23;1.40;;;1.30;;
75005;SDS011;63553;51.814;4.600;2024-01-27T06:23:48;2.63;;;1.45;;
75005;SDS011;63553;51.814;4.600;2024-01-27T06:26:14;1.35;;;1.23;;
75005;SDS011;63553;51.814;4.600;2024-01-27T06:28:39;1.58;;;1.48;;
75005;SDS011;63553;51.814;4.600;2024-01-27T06:31:05;1.23;;;1.13;;
75005;SDS011;63553;51.814;4.600;2024-01-27T06:33:32;1.10;;;1.10;;
75005;SDS011;63553;51.814;4.600;2024-01-27T06:35:59;1.50;;;1.40;;
75005;SDS011;63553;51.814;4.600;2024-01-27T06:38:24;1.83;;;1.50;;
75005;SDS011;63553;51.814;4.600;2024-01-27T06:40:51;1.65;;;1.40;;
75005;SDS011;63553;51.814;4.600;2024-01-27T06:43:16;1.50;;;1.20;;
75005;SDS011;63553;51.814;4.600;2024-01-27T06:45:42;4.50;;;1.47;;
75005;SDS011;63553;51.814;4.600;2024-01-27T06:48:07;1.53;;;1.43;;
75005;SDS011;63553;51.814;4.600;2024-01-27T06:50:33;2.20;;;1.17;;
75005;SDS011;63553;51.814;4.600;2024-01-27T06:52:58;2.22;;;1.30;;
75005;SDS011;63553;51.814;4.600;2024-01-27T06:55:24;1.77;;;1.35;;
75005;SDS011;63553;51.814;4.600;2024-01-27T06:57:49;1.52;;;1.42;;
75005;SDS011;63553;51.814;4.600;2024-01-27T07:00:15;3.15;;;1.70;;
75005;SDS011;63553;51.814;4.600;2024-01-27T07:02:41;2.30;;;1.70;;
75005;SDS011;63553;51.814;4.600;2024-01-27T07:05:07;2.30;;;1.98;;
75005;SDS011;63553;51.814;4.600;2024-01-27T07:07:33;1.90;;;1.30;;
75005;SDS011;63553;51.814;4.600;2024-01-27T07:09:58;3.45;;;1.45;;
75005;SDS011;63553;51.814;4.600;2024-01-27T07:12:24;3.83;;;1.60;;
75005;SDS011;63553;51.814;4.600;2024-01-27T07:14:50;3.58;;;1.55;;
75005;SDS011;63553;51.814;4.600;2024-01-27T07:17:16;41.53;;;11.68;;
75005;SDS011;63553;51.814;4.600;2024-01-27T07:19:42;22.90;;;6.95;;
75005;SDS011;63553;51.814;4.600;2024-01-27T07:22:07;13.65;;;4.43;;
75005;SDS011;63553;51.814;4.600;2024-01-27T07:24:33;11.93;;;4.15;;
75005;SDS011;63553;51.814;4.600;2024-01-27T07:26:59;10.88;;;3.55;;
75005;SDS011;63553;51.814;4.600;2024-01-27T07:29:26;11.20;;;3.17;;
75005;SDS011;63553;51.814;4.600;2024-01-27T07:31:52;6.38;;;2.72;;
75005;SDS011;63553;51.814;4.600;2024-01-27T07:34:17;7.18;;;2.72;;
75005;SDS011;63553;51.814;4.600;2024-01-27T07:36:43;4.30;;;2.30;;
75005;SDS011;63553;51.814;4.600;2024-01-27T07:39:09;3.90;;;2.08;;
75005;SDS011;63553;51.814;4.600;2024-01-27T07:41:34;5.18;;;2.10;;
75005;SDS011;63553;51.814;4.600;2024-01-27T07:44:07;3.10;;;2.45;;
75005;SDS011;63553;51.814;4.600;2024-01-27T07:46:40;8.20;;;4.32;;
75005;SDS011;63553;51.814;4.600;2024-01-27T07:49:06;13.00;;;5.32;;
75005;SDS011;63553;51.814;4.600;2024-01-27T07:51:33;9.50;;;5.85;;
75005;SDS011;63553;51.814;4.600;2024-01-27T07:53:59;13.27;;;5.50;;
75005;SDS011;63553;51.814;4.600;2024-01-27T07:56:25;10.68;;;5.35;;
75005;SDS011;63553;51.814;4.600;2024-01-27T07:58:51;15.63;;;6.68;;
75005;SDS011;63553;51.814;4.600;2024-01-27T08:01:17;13.83;;;5.50;;
75005;SDS011;63553;51.814;4.600;2024-01-27T08:03:43;12.43;;;5.55;;
75005;SDS011;63553;51.814;4.600;2024-01-27T08:06:15;12.40;;;5.53;;
75005;SDS011;63553;51.814;4.600;2024-01-27T08:08:43;14.38;;;6.13;;
75005;SDS011;63553;51.814;4.600;2024-01-27T08:11:15;11.38;;;6.43;;
75005;SDS011;63553;51.814;4.600;2024-01-27T08:13:44;20.48;;;7.25;;
75005;SDS011;63553;51.814;4.600;2024-01-27T08:16:09;18.92;;;7.85;;
75005;SDS011;63553;51.814;4.600;2024-01-27T08:18:37;17.73;;;7.00;;
75005;SDS011;63553;51.814;4.600;2024-01-27T08:21:03;21.75;;;6.40;;
75005;SDS011;63553;51.814;4.600;2024-01-27T08:23:29;12.07;;;5.43;;
75005;SDS011;63553;51.814;4.600;2024-01-27T08:25:54;21.37;;;6.03;;
75005;SDS011;63553;51.814;4.600;2024-01-27T08:28:20;17.60;;;6.30;;
75005;SDS011;63553;51.814;4.600;2024-01-27T08:30:45;13.57;;;5.53;;
75005;SDS011;63553;51.814;4.600;2024-01-27T08:33:11;15.27;;;5.45;;
75005;SDS011;63553;51.814;4.600;2024-01-27T08:35:36;19.93;;;6.17;;
75005;SDS011;63553;51.814;4.600;2024-01-27T08:38:01;11.95;;;5.30;;
75005;SDS011;63553;51.814;4.600;2024-01-27T08:40:28;15.68;;;5.18;;
75005;SDS011;63553;51.814;4.600;2024-01-27T08:42:54;8.35;;;5.13;;
75005;SDS011;63553;51.814;4.600;2024-01-27T08:45:19;10.13;;;5.03;;
75005;SDS011;63553;51.814;4.600;2024-01-27T08:47:44;12.97;;;5.63;;
75005;SDS011;63553;51.814;4.600;2024-01-27T08:50:10;10.50;;;5.20;;
75005;SDS011;63553;51.814;4.600;2024-01-27T08:52:35;11.07;;;4.85;;
75005;SDS011;63553;51.814;4.600;2024-01-27T08:55:01;12.57;;;5.43;;
75005;SDS011;63553;51.814;4.600;2024-01-27T08:57:26;15.43;;;5.50;;
75005;SDS011;63553;51.814;4.600;2024-01-27T08:59:52;11.03;;;4.80;;
75005;SDS011;63553;51.814;4.600;2024-01-27T09:02:17;9.40;;;5.13;;
75005;SDS011;63553;51.814;4.600;2024-01-27T09:04:42;15.23;;;5.63;;
75005;SDS011;63553;51.814;4.600;2024-01-27T09:07:08;9.73;;;4.10;;
75005;SDS011;63553;51.814;4.600;2024-01-27T09:09:33;11.00;;;5.00;;
75005;SDS011;63553;51.814;4.600;2024-01-27T09:11:58;12.50;;;5.63;;
75005;SDS011;63553;51.814;4.600;2024-01-27T09:14:24;14.05;;;5.50;;
75005;SDS011;63553;51.814;4.600;2024-01-27T09:16:49;11.83;;;4.93;;
75005;SDS011;63553;51.814;4.600;2024-01-27T09:19:17;14.05;;;5.55;;
75005;SDS011;63553;51.814;4.600;2024-01-27T09:21:42;17.93;;;6.27;;
75005;SDS011;63553;51.814;4.600;2024-01-27T09:24:07;15.53;;;5.77;;
75005;SDS011;63553;51.814;4.600;2024-01-27T09:26:33;13.20;;;5.15;;
75005;SDS011;63553;51.814;4.600;2024-01-27T09:28:58;11.15;;;5.38;;
75005;SDS011;63553;51.814;4.600;2024-01-27T09:31:24;19.33;;;6.17;;
75005;SDS011;63553;51.814;4.600;2024-01-27T09:33:50;12.52;;;5.40;;
75005;SDS011;63553;51.814;4.600;2024-01-27T09:36:17;12.80;;;5.70;;
75005;SDS011;63553;51.814;4.600;2024-01-27T09:38:43;10.10;;;5.60;;
75005;SDS011;63553;51.814;4.600;2024-01-27T09:41:08;16.63;;;6.97;;
75005;SDS011;63553;51.814;4.600;2024-01-27T09:43:35;13.88;;;6.13;;
75005;SDS011;63553;51.814;4.600;2024-01-27T09:46:02;15.15;;;6.18;;
75005;SDS011;63553;51.814;4.600;2024-01-27T09:48:28;21.38;;;7.60;;
75005;SDS011;63553;51.814;4.600;2024-01-27T09:50:54;27.40;;;9.77;;
75005;SDS011;63553;51.814;4.600;2024-01-27T09:53:23;26.58;;;7.75;;
75005;SDS011;63553;51.814;4.600;2024-01-27T09:55:48;73.20;;;14.83;;
75005;SDS011;63553;51.814;4.600;2024-01-27T09:58:15;118.70;;;21.35;;
75005;SDS011;63553;51.814;4.600;2024-01-27T10:00:40;17.83;;;8.52;;
75005;SDS011;63553;51.814;4.600;2024-01-27T10:03:06;9.52;;;4.68;;
75005;SDS011;63553;51.814;4.600;2024-01-27T10:05:33;8.52;;;5.25;;
75005;SDS011;63553;51.814;4.600;2024-01-27T10:08:00;13.73;;;5.65;;
75005;SDS011;63553;51.814;4.600;2024-01-27T10:10:26;11.50;;;4.97;;
75005;SDS011;63553;51.814;4.600;2024-01-27T10:12:51;11.20;;;4.60;;
75005;SDS011;63553;51.814;4.600;2024-01-27T10:15:21;13.20;;;5.10;;
75005;SDS011;63553;51.814;4.600;2024-01-27T10:17:47;11.73;;;4.72;;
75005;SDS011;63553;51.814;4.600;2024-01-27T10:20:13;12.70;;;4.57;;
75005;SDS011;63553;51.814;4.600;2024-01-27T10:22:41;11.68;;;4.13;;
75005;SDS011;63553;51.814;4.600;2024-01-27T10:25:07;8.15;;;4.32;;
75005;SDS011;63553;51.814;4.600;2024-01-27T10:27:33;8.05;;;4.25;;
75005;SDS011;63553;51.814;4.600;2024-01-27T10:29:59;8.70;;;5.00;;
75005;SDS011;63553;51.814;4.600;2024-01-27T10:32:24;11.43;;;5.45;;
75005;SDS011;63553;51.814;4.600;2024-01-27T10:34:50;10.45;;;4.65;;
75005;SDS011;63553;51.814;4.600;2024-01-27T10:37:35;12.90;;;4.70;;
75005;SDS011;63553;51.814;4.600;2024-01-27T10:40:04;7.57;;;3.67;;
75005;SDS011;63553;51.814;4.600;2024-01-27T10:42:32;9.80;;;4.00;;
75005;SDS011;63553;51.814;4.600;2024-01-27T10:45:00;14.02;;;5.00;;
75005;SDS011;63553;51.814;4.600;2024-01-27T10:47:29;7.85;;;4.20;;
75005;SDS011;63553;51.814;4.600;2024-01-27T10:49:56;8.93;;;4.30;;
75005;SDS011;63553;51.814;4.600;2024-01-27T10:52:29;11.95;;;5.00;;
75005;SDS011;63553;51.814;4.600;2024-01-27T10:54:59;9.32;;;4.68;;
75005;SDS011;63553;51.814;4.600;2024-01-27T10:57:26;8.32;;;3.88;;
75005;SDS011;63553;51.814;4.600;2024-01-27T10:59:53;8.18;;;3.70;;
75005;SDS011;63553;51.814;4.600;2024-01-27T11:02:21;5.55;;;4.15;;
75005;SDS011;63553;51.814;4.600;2024-01-27T11:04:50;8.32;;;3.72;;
75005;SDS011;63553;51.814;4.600;2024-01-27T11:07:19;12.95;;;4.00;;
75005;SDS011;63553;51.814;4.600;2024-01-27T11:09:48;7.65;;;3.85;;
75005;SDS011;63553;51.814;4.600;2024-01-27T11:12:15;7.53;;;3.15;;
75005;SDS011;63553;51.814;4.600;2024-01-27T11:14:41;3.53;;;2.90;;
75005;SDS011;63553;51.814;4.600;2024-01-27T11:17:06;8.15;;;3.42;;
75005;SDS011;63553;51.814;4.600;2024-01-27T11:19:32;5.00;;;2.67;;
75005;SDS011;63553;51.814;4.600;2024-01-27T11:22:02;6.38;;;2.97;;
75005;SDS011;63553;51.814;4.600;2024-01-27T11:24:28;4.68;;;2.42;;
75005;SDS011;63553;51.814;4.600;2024-01-27T11:27:12;4.70;;;2.22;;
75005;SDS011;63553;51.814;4.600;2024-01-27T11:29:46;4.15;;;2.42;;
75005;SDS011;63553;51.814;4.600;2024-01-27T11:32:12;4.05;;;2.13;;
75005;SDS011;63553;51.814;4.600;2024-01-27T11:34:44;3.03;;;1.97;;
75005;SDS011;63553;51.814;4.600;2024-01-27T11:37:13;3.65;;;1.73;;
75005;SDS011;63553;51.814;4.600;2024-01-27T11:39:40;6.05;;;2.47;;
75005;SDS011;63553;51.814;4.600;2024-01-27T11:44:35;3.88;;;2.50;;
75005;SDS011;63553;51.814;4.600;2024-01-27T11:47:01;3.83;;;2.63;;
75005;SDS011;63553;51.814;4.600;2024-01-27T11:49:27;6.57;;;3.45;;
75005;SDS011;63553;51.814;4.600;2024-01-27T11:51:53;5.30;;;2.95;;
75005;SDS011;63553;51.814;4.600;2024-01-27T11:54:18;4.23;;;3.30;;
75005;SDS011;63553;51.814;4.600;2024-01-27T11:56:43;4.93;;;3.60;;
75005;SDS011;63553;51.814;4.600;2024-01-27T11:59:09;9.03;;;3.60;;
75005;SDS011;63553;51.814;4.600;2024-01-27T12:01:35;6.53;;;3.88;;
75005;SDS011;63553;51.814;4.600;2024-01-27T12:04:02;7.07;;;4.65;;
75005;SDS011;63553;51.814;4.600;2024-01-27T12:06:29;6.68;;;4.95;;
75005;SDS011;63553;51.814;4.600;2024-01-27T12:08:55;8.43;;;3.88;;
75005;SDS011;63553;51.814;4.600;2024-01-27T12:11:22;6.75;;;4.10;;
75005;SDS011;63553;51.814;4.600;2024-01-27T12:13:51;5.32;;;4.00;;
75005;SDS011;63553;51.814;4.600;2024-01-27T12:16:17;10.50;;;4.22;;
75005;SDS011;63553;51.814;4.600;2024-01-27T12:18:46;5.63;;;3.70;;
75005;SDS011;63553;51.814;4.600;2024-01-27T12:21:11;7.05;;;4.32;;
75005;SDS011;63553;51.814;4.600;2024-01-27T12:23:48;5.00;;;3.92;;
75005;SDS011;63553;51.814;4.600;2024-01-27T12:26:15;6.30;;;4.03;;
75005;SDS011;63553;51.814;4.600;2024-01-27T12:28:41;5.93;;;4.00;;
75005;SDS011;63553;51.814;4.600;2024-01-27T12:31:06;6.13;;;3.92;;
75005;SDS011;63553;51.814;4.600;2024-01-27T12:33:31;5.95;;;3.88;;
75005;SDS011;63553;51.814;4.600;2024-01-27T12:35:57;5.57;;;3.47;;
75005;SDS011;63553;51.814;4.600;2024-01-27T12:38:22;4.30;;;3.60;;
75005;SDS011;63553;51.814;4.600;2024-01-27T12:40:48;3.78;;;3.13;;
75005;SDS011;63553;51.814;4.600;2024-01-27T12:43:13;7.03;;;3.63;;
75005;SDS011;63553;51.814;4.600;2024-01-27T12:45:40;4.72;;;3.70;;
75005;SDS011;63553;51.814;4.600;2024-01-27T12:48:05;5.05;;;3.63;;
75005;SDS011;63553;51.814;4.600;2024-01-27T12:50:31;3.72;;;3.40;;
75005;SDS011;63553;51.814;4.600;2024-01-27T12:52:58;6.25;;;3.60;;
75005;SDS011;63553;51.814;4.600;2024-01-27T12:55:24;5.28;;;4.05;;
75005;SDS011;63553;51.814;4.600;2024-01-27T12:57:49;4.27;;;3.40;;
75005;SDS011;63553;51.814;4.600;2024-01-27T13:00:15;4.63;;;3.63;;
75005;SDS011;63553;51.814;4.600;2024-01-27T13:02:40;5.90;;;3.42;;
75005;SDS011;63553;51.814;4.600;2024-01-27T13:05:06;7.07;;;3.95;;
75005;SDS011;63553;51.814;4.600;2024-01-27T13:07:31;4.72;;;3.63;;
75005;SDS011;63553;51.814;4.600;2024-01-27T13:09:57;8.23;;;4.13;;
75005;SDS011;63553;51.814;4.600;2024-01-27T13:12:22;3.73;;;3.43;;
75005;SDS011;63553;51.814;4.600;2024-01-27T13:14:48;4.13;;;3.33;;
75005;SDS011;63553;51.814;4.600;2024-01-27T13:17:14;5.60;;;3.47;;
75005;SDS011;63553;51.814;4.600;2024-01-27T13:19:40;4.07;;;3.60;;
75005;SDS011;63553;51.814;4.600;2024-01-27T13:22:06;5.45;;;3.10;;
75005;SDS011;63553;51.814;4.600;2024-01-27T13:24:32;6.50;;;3.40;;
75005;SDS011;63553;51.814;4.600;2024-01-27T13:26:57;4.45;;;3.50;;
75005;SDS011;63553;51.814;4.600;2024-01-27T13:29:23;3.80;;;3.30;;
75005;SDS011;63553;51.814;4.600;2024-01-27T13:31:49;7.18;;;3.72;;
75005;SDS011;63553;51.814;4.600;2024-01-27T13:34:14;4.70;;;3.10;;
75005;SDS011;63553;51.814;4.600;2024-01-27T13:36:39;3.47;;;3.17;;
75005;SDS011;63553;51.814;4.600;2024-01-27T13:39:05;4.40;;;3.45;;
75005;SDS011;63553;51.814;4.600;2024-01-27T13:41:30;3.42;;;3.13;;
75005;SDS011;63553;51.814;4.600;2024-01-27T13:43:56;4.53;;;3.50;;
75005;SDS011;63553;51.814;4.600;2024-01-27T13:46:21;5.27;;;3.83;;
75005;SDS011;63553;51.814;4.600;2024-01-27T13:48:47;4.85;;;4.10;;
75005;SDS011;63553;51.814;4.600;2024-01-27T13:51:13;5.53;;;4.07;;
75005;SDS011;63553;51.814;4.600;2024-01-27T13:53:38;4.90;;;4.30;;
75005;SDS011;63553;51.814;4.600;2024-01-27T13:56:04;5.05;;;3.60;;
75005;SDS011;63553;51.814;4.600;2024-01-27T13:58:29;4.88;;;4.20;;
75005;SDS011;63553;51.814;4.600;2024-01-27T14:00:54;4.53;;;4.00;;
75005;SDS011;63553;51.814;4.600;2024-01-27T14:03:20;7.63;;;3.58;;
75005;SDS011;63553;51.814;4.600;2024-01-27T14:05:45;4.77;;;3.97;;
75005;SDS011;63553;51.814;4.600;2024-01-27T14:08:12;3.80;;;3.40;;
75005;SDS011;63553;51.814;4.600;2024-01-27T14:10:37;4.43;;;3.08;;
75005;SDS011;63553;51.814;4.600;2024-01-27T14:13:04;4.15;;;2.85;;
75005;SDS011;63553;51.814;4.600;2024-01-27T14:15:34;4.65;;;3.35;;
75005;SDS011;63553;51.814;4.600;2024-01-27T14:18:02;4.35;;;3.05;;
75005;SDS011;63553;51.814;4.600;2024-01-27T14:20:31;4.95;;;3.13;;
75005;SDS011;63553;51.814;4.600;2024-01-27T14:22:58;3.35;;;2.80;;
75005;SDS011;63553;51.814;4.600;2024-01-27T14:25:24;3.03;;;2.80;;
75005;SDS011;63553;51.814;4.600;2024-01-27T14:27:49;3.00;;;2.70;;
75005;SDS011;63553;51.814;4.600;2024-01-27T14:30:14;3.78;;;2.88;;
75005;SDS011;63553;51.814;4.600;2024-01-27T14:32:40;3.75;;;2.70;;
75005;SDS011;63553;51.814;4.600;2024-01-27T14:35:05;3.20;;;2.50;;
75005;SDS011;63553;51.814;4.600;2024-01-27T14:37:31;5.05;;;2.70;;
75005;SDS011;63553;51.814;4.600;2024-01-27T14:39:57;2.95;;;2.55;;